createdAt,value
2023-04-17T00:00:17.742Z,3842.9231
2023-04-17T00:01:20.335Z,3886.3845
2023-04-17T00:02:23.028Z,3859.5386
2023-04-17T00:03:25.557Z,3860.2307
2023-04-17T00:04:28.156Z,3894.3845
2023-04-17T00:05:30.696Z,3874.8462
2023-04-17T00:06:33.210Z,3810.4614
2023-04-17T00:07:35.824Z,3791.7693
2023-04-17T00:08:38.655Z,3789.7693
2023-04-17T00:09:40.995Z,3768.7693
2023-04-17T00:10:44.442Z,3747.1538
2023-04-17T00:11:46.157Z,3731.4614
2023-04-17T00:12:48.707Z,3833.7693
2023-04-17T00:13:51.322Z,3766.2307
2023-04-17T00:14:54.078Z,3791.6924
2023-04-17T00:15:56.595Z,3770.1538
2023-04-17T00:16:59.044Z,3744.6924
2023-04-17T00:18:01.777Z,3725.9231
2023-04-17T00:19:04.204Z,3691.3076
2023-04-17T00:20:07.122Z,3652.0769
2023-04-17T00:21:09.375Z,3665.4614
2023-04-17T00:22:11.980Z,3664.3845
2023-04-17T00:23:14.542Z,3719.0769
2023-04-17T00:24:17.148Z,3702.4614
2023-04-17T00:25:19.712Z,3669.2307
2023-04-17T00:26:22.304Z,3642.3076
2023-04-17T00:27:24.859Z,3614.6924
2023-04-17T00:28:27.474Z,3618.0000
2023-04-17T00:29:30.029Z,3595.7693
2023-04-17T00:30:32.642Z,3599.0769
2023-04-17T00:31:35.226Z,3613.7693
2023-04-17T00:32:37.890Z,3549.7693
2023-04-17T00:33:40.566Z,3600.0769
2023-04-17T00:34:42.974Z,3603.6155
2023-04-17T00:35:45.532Z,3545.3845
2023-04-17T00:36:48.136Z,3555.2307
2023-04-17T00:37:50.720Z,3548.0000
2023-04-17T00:38:53.311Z,3532.0769
2023-04-17T00:39:55.865Z,3520.9231
2023-04-17T00:40:58.469Z,3546.3076
2023-04-17T00:42:01.319Z,3513.3076
2023-04-17T00:43:03.613Z,3541.8462
2023-04-17T00:44:06.365Z,3515.0769
2023-04-17T00:45:08.780Z,3502.8462
2023-04-17T00:46:11.439Z,3485.8462
2023-04-17T00:47:13.956Z,3451.6155
2023-04-17T00:48:16.576Z,3475.3845
2023-04-17T00:49:19.127Z,3352.3845
2023-04-17T00:50:21.747Z,3381.9231
2023-04-17T00:51:24.301Z,3442.3076
2023-04-17T00:52:27.109Z,3393.0000
2023-04-17T00:53:29.463Z,3335.3845
2023-04-17T00:54:32.090Z,3343.2307
2023-04-17T00:55:34.645Z,3385.0769
2023-04-17T00:56:37.246Z,3397.3845
2023-04-17T00:57:39.812Z,3398.6924
2023-04-17T00:58:42.406Z,3354.6155
2023-04-17T00:59:44.960Z,3337.4614
2023-04-17T01:00:47.606Z,3310.8462
2023-04-17T01:01:50.208Z,3358.8462
2023-04-17T01:02:52.829Z,3301.0769
2023-04-17T01:03:55.764Z,3319.0000
2023-04-17T01:04:57.987Z,3254.2307
2023-04-17T01:06:00.538Z,3278.0000
2023-04-17T01:07:03.173Z,3293.8462
2023-04-17T01:08:05.703Z,3263.5386
2023-04-17T01:09:08.306Z,3316.0769
2023-04-17T01:10:10.862Z,3328.6155
2023-04-17T01:11:13.469Z,3238.6155
2023-04-17T01:12:16.023Z,3257.6924
2023-04-17T01:13:18.664Z,3279.2307
2023-04-17T01:14:21.209Z,3265.4614
2023-04-17T01:15:23.821Z,3238.3845
2023-04-17T01:16:26.380Z,3238.9231
2023-04-17T01:17:28.987Z,3215.1538
2023-04-17T01:18:31.527Z,3216.4614
2023-04-17T01:19:34.350Z,3213.0769
2023-04-17T01:20:37.006Z,3202.6155
2023-04-17T01:21:39.308Z,3182.0769
2023-04-17T01:22:41.854Z,3195.2307
2023-04-17T01:23:44.470Z,3189.2307
2023-04-17T01:24:47.039Z,3178.6155
2023-04-17T01:25:49.637Z,3188.7693
2023-04-17T01:26:52.202Z,3160.6155
2023-04-17T01:27:54.795Z,3166.7693
2023-04-17T01:28:57.409Z,3151.4614
2023-04-17T01:29:59.967Z,3129.5386
2023-04-17T01:31:02.566Z,3075.6924
2023-04-17T01:32:05.134Z,3035.1538
2023-04-17T01:33:07.707Z,3058.9231
2023-04-17T01:34:10.306Z,3085.7693
2023-04-17T01:35:12.874Z,3077.5386
2023-04-17T01:36:15.485Z,3091.2307
2023-04-17T01:37:18.041Z,3084.4614
2023-04-17T01:38:20.664Z,3075.3076
2023-04-17T01:39:23.508Z,3037.9231
2023-04-17T01:40:25.835Z,3048.3845
2023-04-17T01:41:28.401Z,3027.6924
2023-04-17T01:42:30.990Z,2988.5386
2023-04-17T01:43:33.569Z,2985.1538
2023-04-17T01:44:36.164Z,2965.8462
2023-04-17T01:45:38.760Z,3007.1538
2023-04-17T01:46:41.409Z,3006.0000
2023-04-17T01:47:43.926Z,2960.2307
2023-04-17T01:48:46.628Z,2923.4614
2023-04-17T01:49:49.069Z,2940.3845
2023-04-17T01:50:51.681Z,2897.9231
2023-04-17T01:51:54.243Z,2877.0000
2023-04-17T01:52:56.847Z,2877.4614
2023-04-17T01:53:59.407Z,2943.5386
2023-04-17T01:55:02.020Z,2899.0769
2023-04-17T01:56:04.586Z,2886.7693
2023-04-17T01:57:07.202Z,2868.4614
2023-04-17T01:58:09.759Z,2861.0769
2023-04-17T01:59:12.504Z,2856.2307
2023-04-17T02:00:14.928Z,2833.4614
2023-04-17T02:01:17.559Z,2811.6155
2023-04-17T02:02:20.332Z,2840.1538
2023-04-17T02:03:22.814Z,2838.3845
2023-04-17T02:04:25.329Z,2812.1538
2023-04-17T02:05:27.883Z,2850.1538
2023-04-17T02:06:30.446Z,2901.7693
2023-04-17T02:07:33.058Z,2829.7693
2023-04-17T02:08:35.617Z,2819.7693
2023-04-17T02:09:38.235Z,2826.3845
2023-04-17T02:10:40.793Z,2847.0000
2023-04-17T02:11:43.404Z,2783.4614
2023-04-17T02:12:45.966Z,2803.1538
2023-04-17T02:13:48.576Z,2769.6155
2023-04-17T02:14:51.137Z,2762.7693
2023-04-17T02:15:53.771Z,2737.0769
2023-04-17T02:16:56.321Z,2810.3845
2023-04-17T02:17:59.018Z,2783.9231
2023-04-17T02:19:01.488Z,2819.1538
2023-04-17T02:20:04.102Z,2732.1538
2023-04-17T02:21:06.661Z,2753.3076
2023-04-17T02:22:09.266Z,2802.8462
2023-04-17T02:23:11.843Z,2787.4614
2023-04-17T02:24:14.434Z,2747.8462
2023-04-17T02:25:17.295Z,2714.1538
2023-04-17T02:26:19.613Z,2715.4614
2023-04-17T02:27:22.163Z,2740.1538
2023-04-17T02:28:24.783Z,2706.0769
2023-04-17T02:29:27.355Z,2703.6155
2023-04-17T02:30:29.942Z,2722.7693
2023-04-17T02:31:32.546Z,2714.0769
2023-04-17T02:32:35.139Z,2709.5386
2023-04-17T02:33:37.685Z,2719.3076
2023-04-17T02:34:40.273Z,2685.6924
2023-04-17T02:35:42.829Z,2643.6155
2023-04-17T02:36:45.453Z,2630.6924
2023-04-17T02:37:48.017Z,2631.0000
2023-04-17T02:38:50.612Z,2599.2307
2023-04-17T02:39:53.183Z,2640.4614
2023-04-17T02:40:55.778Z,2655.3845
2023-04-17T02:41:58.332Z,2598.5386
2023-04-17T02:43:00.952Z,2609.1538
2023-04-17T02:44:03.513Z,2634.5386
2023-04-17T02:45:06.121Z,2625.5386
2023-04-17T02:46:08.825Z,2617.6924
2023-04-17T02:47:11.289Z,2609.3845
2023-04-17T02:48:13.855Z,2612.6924
2023-04-17T02:49:16.449Z,2617.1538
2023-04-17T02:50:19.017Z,2586.8462
2023-04-17T02:51:21.623Z,2508.9231
2023-04-17T02:52:24.237Z,2494.6924
2023-04-17T02:53:26.783Z,2475.8462
2023-04-17T02:54:29.340Z,2457.6924
2023-04-17T02:55:31.946Z,2454.0000
2023-04-17T02:56:34.517Z,2465.9231
2023-04-17T02:57:37.113Z,2494.4614
2023-04-17T02:58:39.711Z,2456.7693
2023-04-17T02:59:42.292Z,2430.9231
2023-04-17T03:00:44.853Z,2441.8462
2023-04-17T03:01:47.504Z,2422.1538
2023-04-17T03:02:50.155Z,2400.9231
2023-04-17T03:03:52.911Z,2451.1538
2023-04-17T03:04:55.170Z,2402.8462
2023-04-17T03:05:57.780Z,2431.4614
2023-04-17T03:07:00.337Z,2477.7693
2023-04-17T03:08:02.943Z,2426.6924
2023-04-17T03:09:05.518Z,2440.9231
2023-04-17T03:10:08.118Z,2374.5386
2023-04-17T03:11:10.670Z,2375.6155
2023-04-17T03:12:13.285Z,2397.8462
2023-04-17T03:13:15.840Z,2388.2307
2023-04-17T03:14:18.484Z,2413.1538
2023-04-17T03:15:21.032Z,2413.9231
2023-04-17T03:16:23.910Z,2439.4614
2023-04-17T03:17:26.201Z,2403.6155
2023-04-17T03:18:28.795Z,2382.8462
2023-04-17T03:19:31.338Z,2351.6924
2023-04-17T03:20:33.956Z,2370.2307
2023-04-17T03:21:36.505Z,2337.1538
2023-04-17T03:22:39.109Z,2385.6924
2023-04-17T03:23:41.673Z,2383.7693
2023-04-17T03:24:44.525Z,2380.7693
2023-04-17T03:25:46.849Z,2381.0769
2023-04-17T03:26:49.480Z,2349.7693
2023-04-17T03:27:52.014Z,2354.4614
2023-04-17T03:28:54.618Z,2377.4614
2023-04-17T03:29:57.199Z,2354.8462
2023-04-17T03:30:59.788Z,2364.4614
2023-04-17T03:32:02.455Z,2299.0769
2023-04-17T03:33:05.009Z,2317.3076
2023-04-17T03:34:07.514Z,2331.1538
2023-04-17T03:35:10.120Z,2271.1538
2023-04-17T03:36:12.685Z,2275.4614
2023-04-17T03:37:15.296Z,2294.4614
2023-04-17T03:38:17.861Z,2269.0769
2023-04-17T03:39:20.854Z,2268.3076
2023-04-17T03:40:23.030Z,2276.4614
2023-04-17T03:41:25.637Z,2273.3845
2023-04-17T03:42:28.203Z,2244.3076
2023-04-17T03:43:30.804Z,2240.6155
2023-04-17T03:44:33.358Z,2240.6924
2023-04-17T03:45:36.233Z,2247.3076
2023-04-17T03:46:38.527Z,2249.7693
2023-04-17T03:47:41.167Z,2238.4614
2023-04-17T03:48:43.703Z,2196.3076
2023-04-17T03:49:46.310Z,2182.3845
2023-04-17T03:50:48.898Z,2196.5386
2023-04-17T03:51:51.477Z,2172.0000
2023-04-17T03:52:54.035Z,2188.7693
2023-04-17T03:53:56.642Z,2175.6924
2023-04-17T03:54:59.201Z,2194.3845
2023-04-17T03:56:01.814Z,2185.3845
2023-04-17T03:57:04.382Z,2120.0000
2023-04-17T03:58:06.992Z,2100.6924
2023-04-17T03:59:09.785Z,2131.5386
2023-04-17T04:00:12.161Z,2086.6924
2023-04-17T04:01:14.793Z,2077.1538
2023-04-17T04:02:17.435Z,2091.0000
2023-04-17T04:03:20.042Z,2114.3845
2023-04-17T04:04:22.827Z,2062.6155
2023-04-17T04:05:25.402Z,2085.6924
2023-04-17T04:06:27.664Z,2067.9231
2023-04-17T04:07:30.269Z,2053.6155
2023-04-17T04:08:32.835Z,2044.2307
2023-04-17T04:09:35.396Z,2058.0000
2023-04-17T04:10:37.999Z,2060.0000
2023-04-17T04:11:40.554Z,2055.3845
2023-04-17T04:12:43.165Z,2033.5385
2023-04-17T04:13:45.722Z,2048.9231
2023-04-17T04:14:48.326Z,2051.4614
2023-04-17T04:15:50.900Z,2051.6924
2023-04-17T04:16:53.496Z,2049.4614
2023-04-17T04:17:56.109Z,2041.4615
2023-04-17T04:18:58.676Z,2029.3846
2023-04-17T04:20:01.269Z,2034.9231
2023-04-17T04:21:03.838Z,2037.7693
2023-04-17T04:22:06.959Z,2026.1538
2023-04-17T04:23:08.989Z,2046.2307
2023-04-17T04:24:11.552Z,2034.9231
2023-04-17T04:25:14.169Z,2030.5385
2023-04-17T04:26:16.713Z,2031.2307
2023-04-17T04:27:19.322Z,2030.4615
2023-04-17T04:28:21.883Z,2042.6154
2023-04-17T04:29:24.493Z,2022.9231
2023-04-17T04:30:27.060Z,2012.3846
2023-04-17T04:31:29.843Z,2010.4615
2023-04-17T04:32:32.298Z,2021.2307
2023-04-17T04:33:35.898Z,2020.3846
2023-04-17T04:34:37.380Z,2008.2307
2023-04-17T04:35:40.007Z,2013.0769
2023-04-17T04:36:42.553Z,2006.3846
2023-04-17T04:37:45.164Z,2000.8462
2023-04-17T04:38:47.726Z,2010.6923
2023-04-17T04:39:50.325Z,2012.3846
2023-04-17T04:40:52.944Z,1993.4615
2023-04-17T04:41:55.502Z,1997.9231
2023-04-17T04:42:58.073Z,1978.7693
2023-04-17T04:44:00.669Z,2000.8462
2023-04-17T04:45:03.239Z,1986.1538
2023-04-17T04:46:05.831Z,1978.6154
2023-04-17T04:47:08.546Z,1987.1538
2023-04-17T04:48:10.995Z,1990.1538
2023-04-17T04:49:13.621Z,1989.5385
2023-04-17T04:50:17.388Z,1968.8462
2023-04-17T04:51:18.755Z,1971.3077
2023-04-17T04:52:21.340Z,1974.3077
2023-04-17T04:53:24.123Z,1964.6923
2023-04-17T04:54:26.514Z,1977.8462
2023-04-17T04:55:29.062Z,1980.9231
2023-04-17T04:56:33.040Z,1960.2307
2023-04-17T04:57:34.229Z,1955.3077
2023-04-17T04:58:36.841Z,1926.3846
2023-04-17T04:59:39.402Z,1951.7693
2023-04-17T05:00:42.052Z,1930.1538
2023-04-17T05:01:44.866Z,1944.6154
2023-04-17T05:02:47.278Z,1940.3077
2023-04-17T05:03:49.874Z,1945.9231
2023-04-17T05:04:52.367Z,1938.2307
2023-04-17T05:05:54.903Z,1946.2307
2023-04-17T05:06:57.612Z,1948.8462
2023-04-17T05:08:00.070Z,1958.8462
2023-04-17T05:09:02.650Z,1944.7693
2023-04-17T05:10:05.285Z,1953.7693
2023-04-17T05:11:07.819Z,1950.6154
2023-04-17T05:12:10.508Z,1935.5385
2023-04-17T05:13:13.084Z,1942.0000
2023-04-17T05:14:15.731Z,1930.5385
2023-04-17T05:15:18.247Z,1924.7693
2023-04-17T05:16:20.882Z,1922.3077
2023-04-17T05:17:23.432Z,1911.4615
2023-04-17T05:18:26.015Z,1918.0769
2023-04-17T05:19:28.564Z,1917.3077
2023-04-17T05:20:31.184Z,1919.6154
2023-04-17T05:21:33.735Z,1894.6923
2023-04-17T05:22:36.339Z,1879.8462
2023-04-17T05:23:38.891Z,1879.9231
2023-04-17T05:24:41.507Z,1873.1538
2023-04-17T05:25:44.064Z,1886.5385
2023-04-17T05:26:46.668Z,1887.6923
2023-04-17T05:27:49.281Z,1887.5385
2023-04-17T05:28:51.828Z,1875.3846
2023-04-17T05:29:54.385Z,1868.9231
2023-04-17T05:30:56.989Z,1895.7693
2023-04-17T05:31:59.604Z,1889.5385
2023-04-17T05:33:02.222Z,1898.0769
2023-04-17T05:34:04.868Z,1893.0769
2023-04-17T05:35:07.344Z,1891.9231
2023-04-17T05:36:09.893Z,1887.9231
2023-04-17T05:37:12.484Z,1882.7693
2023-04-17T05:38:15.045Z,1883.7693
2023-04-17T05:39:17.665Z,1876.4615
2023-04-17T05:40:20.210Z,1863.6154
2023-04-17T05:41:22.822Z,1867.3077
2023-04-17T05:42:25.379Z,1862.3077
2023-04-17T05:43:28.005Z,1852.5385
2023-04-17T05:44:30.548Z,1856.2307
2023-04-17T05:45:33.329Z,1820.2307
2023-04-17T05:46:35.717Z,1823.4615
2023-04-17T05:47:38.515Z,1829.5385
2023-04-17T05:48:40.876Z,1828.1538
2023-04-17T05:49:43.496Z,1824.3846
2023-04-17T05:50:46.058Z,1830.7693
2023-04-17T05:51:48.672Z,1842.0000
2023-04-17T05:52:51.236Z,1821.8462
2023-04-17T05:53:53.851Z,1837.9231
2023-04-17T05:54:56.389Z,1835.2307
2023-04-17T05:55:58.995Z,1831.2307
2023-04-17T05:57:01.555Z,1827.4615
2023-04-17T05:58:16.862Z,1829.4615
2023-04-17T05:59:07.753Z,1847.5385
2023-04-17T06:00:09.336Z,1815.3077
2023-04-17T06:01:11.914Z,1824.5385
2023-04-17T06:02:14.587Z,1829.1538
2023-04-17T06:03:18.162Z,1797.7693
2023-04-17T06:04:19.987Z,1796.5385
2023-04-17T06:05:22.327Z,1809.2307
2023-04-17T06:06:24.846Z,1834.4615
2023-04-17T06:07:27.401Z,1845.9231
2023-04-17T06:08:30.016Z,1845.0769
2023-04-17T06:09:32.581Z,1969.9231
2023-04-17T06:10:35.198Z,2187.0769
2023-04-17T06:11:37.748Z,2382.8462
2023-04-17T06:12:40.361Z,2636.1538
2023-04-17T06:13:42.966Z,2709.7693
2023-04-17T06:14:45.525Z,3058.7693
2023-04-17T06:15:48.077Z,3207.3076
2023-04-17T06:16:50.850Z,3348.8462
2023-04-17T06:17:53.319Z,3399.0000
2023-04-17T06:18:55.860Z,3273.7693
2023-04-17T06:19:58.414Z,3260.4614
2023-04-17T06:21:01.051Z,3172.6155
2023-04-17T06:22:03.584Z,3131.6924
2023-04-17T06:23:06.196Z,3044.2307
2023-04-17T06:24:08.764Z,3019.3845
2023-04-17T06:25:11.915Z,2968.8462
2023-04-17T06:26:13.929Z,2951.9231
2023-04-17T06:27:16.533Z,2925.6155
2023-04-17T06:28:19.099Z,2909.0769
2023-04-17T06:29:21.734Z,2915.0000
2023-04-17T06:30:24.256Z,2934.3076
2023-04-17T06:31:26.888Z,2925.0000
2023-04-17T06:32:29.484Z,2925.3076
2023-04-17T06:33:32.062Z,2962.6924
2023-04-17T06:34:34.604Z,2909.6924
2023-04-17T06:35:37.206Z,2958.4614
2023-04-17T06:36:39.792Z,2932.5386
2023-04-17T06:37:42.576Z,2892.8462
2023-04-17T06:38:44.933Z,2887.4614
2023-04-17T06:39:47.535Z,2889.6155
2023-04-17T06:40:52.131Z,2892.8462
2023-04-17T06:41:52.703Z,2805.0000
2023-04-17T06:42:55.308Z,2881.8462
2023-04-17T06:43:57.865Z,3013.7693
2023-04-17T06:45:00.434Z,3563.6924
2023-04-17T06:46:03.054Z,3501.3076
2023-04-17T06:47:05.593Z,3254.4614
2023-04-17T06:48:08.201Z,3149.2307
2023-04-17T06:49:11.038Z,3447.6155
2023-04-17T06:50:13.387Z,3506.3845
2023-04-17T06:51:15.917Z,3578.2307
2023-04-17T06:52:18.525Z,3535.3076
2023-04-17T06:53:21.086Z,3605.6155
2023-04-17T06:54:23.700Z,3874.3076
2023-04-17T06:55:26.277Z,4072.3076
2023-04-17T06:56:28.893Z,4282.5386
2023-04-17T06:57:31.412Z,4450.1538
2023-04-17T06:58:34.030Z,4547.1538
2023-04-17T06:59:36.575Z,4545.7690
2023-04-17T07:00:39.200Z,4497.7690
2023-04-17T07:01:41.826Z,4570.8462
2023-04-17T07:02:44.433Z,4603.3848
2023-04-17T07:03:47.082Z,4563.7690
2023-04-17T07:04:49.784Z,4515.8462
2023-04-17T07:05:52.084Z,4531.7690
2023-04-17T07:06:54.684Z,4500.6152
2023-04-17T07:07:57.237Z,4572.8462
2023-04-17T07:09:00.120Z,4542.3076
2023-04-17T07:10:02.413Z,4526.3076
2023-04-17T07:11:05.048Z,4550.3076
2023-04-17T07:12:07.589Z,4597.2310
2023-04-17T07:13:10.192Z,4585.2310
2023-04-17T07:14:12.973Z,4571.0000
2023-04-17T07:15:15.523Z,4574.0000
2023-04-17T07:16:17.981Z,4596.7690
2023-04-17T07:17:20.613Z,4585.5386
2023-04-17T07:18:23.095Z,4577.0000
2023-04-17T07:19:25.703Z,4608.4614
2023-04-17T07:20:28.283Z,4655.0000
2023-04-17T07:21:30.872Z,4639.9229
2023-04-17T07:22:33.434Z,4624.9229
2023-04-17T07:23:36.035Z,4654.4614
2023-04-17T07:24:38.603Z,4687.5386
2023-04-17T07:25:41.235Z,4713.0771
2023-04-17T07:26:44.040Z,4673.8462
2023-04-17T07:27:46.382Z,4693.4614
2023-04-17T07:28:48.942Z,4703.4614
2023-04-17T07:29:51.564Z,4773.4614
2023-04-17T07:30:54.107Z,4811.7690
2023-04-17T07:31:56.928Z,4833.4614
2023-04-17T07:32:59.534Z,4828.3076
2023-04-17T07:34:01.925Z,4835.3076
2023-04-17T07:35:04.494Z,4857.2310
2023-04-17T07:36:07.072Z,4902.3848
2023-04-17T07:37:09.632Z,4929.0771
2023-04-17T07:38:12.254Z,4952.4614
2023-04-17T07:39:14.855Z,5011.6152
2023-04-17T07:40:17.410Z,4985.0000
2023-04-17T07:41:19.971Z,5014.7690
2023-04-17T07:42:22.661Z,5070.0000
2023-04-17T07:43:25.206Z,5113.3076
2023-04-17T07:44:27.766Z,5092.8462
2023-04-17T07:45:30.334Z,5207.5386
2023-04-17T07:46:33.005Z,5129.3076
2023-04-17T07:47:35.557Z,5030.0000
2023-04-17T07:48:38.117Z,5152.7690
2023-04-17T07:49:40.675Z,5215.4614
2023-04-17T07:50:43.276Z,5256.6924
2023-04-17T07:51:45.830Z,5325.2310
2023-04-17T07:52:48.453Z,5206.4614
2023-04-17T07:53:51.031Z,5190.0000
2023-04-17T07:54:53.628Z,5129.2310
2023-04-17T07:55:56.228Z,5253.5386
2023-04-17T07:56:58.856Z,5273.9229
2023-04-17T07:58:01.345Z,5270.5386
2023-04-17T07:59:03.958Z,5279.3848
2023-04-17T08:00:06.511Z,5243.7690
2023-04-17T08:01:09.126Z,5299.9229
2023-04-17T08:02:11.800Z,5342.3848
2023-04-17T08:03:14.504Z,5289.6152
2023-04-17T08:04:17.338Z,5406.1538
2023-04-17T08:05:19.531Z,5489.3076
2023-04-17T08:06:22.023Z,5458.0000
2023-04-17T08:07:24.668Z,5451.3848
2023-04-17T08:08:27.202Z,5472.8462
2023-04-17T08:09:29.815Z,5446.0771
2023-04-17T08:10:32.372Z,5496.9229
2023-04-17T08:11:40.095Z,5512.3076
2023-04-17T08:12:38.823Z,5459.8462
2023-04-17T08:13:40.150Z,5271.8335
2023-04-17T08:14:42.709Z,5330.2310
2023-04-17T08:15:45.329Z,5472.3076
2023-04-17T08:16:47.952Z,5381.3848
2023-04-17T08:17:50.526Z,5398.0771
2023-04-17T08:18:53.055Z,5420.6152
2023-04-17T08:19:55.692Z,5438.0000
2023-04-17T08:20:58.217Z,5511.9229
2023-04-17T08:22:00.837Z,5426.4614
2023-04-17T08:23:03.402Z,5358.2310
2023-04-17T08:24:06.003Z,5426.0000
2023-04-17T08:25:08.557Z,5455.0000
2023-04-17T08:26:11.167Z,5403.8462
2023-04-17T08:27:13.730Z,5389.6152
2023-04-17T08:28:16.379Z,5524.0771
2023-04-17T08:29:18.951Z,5467.0771
2023-04-17T08:30:21.496Z,5491.6152
2023-04-17T08:31:24.177Z,5332.8462
2023-04-17T08:32:26.674Z,5380.1538
2023-04-17T08:33:29.224Z,5413.6152
2023-04-17T08:34:31.987Z,5436.1538
2023-04-17T08:35:34.389Z,5393.3848
2023-04-17T08:36:37.001Z,5376.0771
2023-04-17T08:37:39.569Z,5365.0000
2023-04-17T08:38:42.208Z,5467.9229
2023-04-17T08:39:44.730Z,5470.8462
2023-04-17T08:40:47.357Z,5438.0000
2023-04-17T08:41:49.893Z,5419.3076
2023-04-17T08:42:52.505Z,5447.5386
2023-04-17T08:43:55.078Z,5416.0000
2023-04-17T08:44:57.666Z,5316.8462
2023-04-17T08:46:00.604Z,5400.6152
2023-04-17T08:47:02.840Z,5377.5386
2023-04-17T08:48:05.424Z,5279.4614
2023-04-17T08:49:08.015Z,5234.9229
2023-04-17T08:50:10.595Z,5241.2310
2023-04-17T08:51:13.178Z,5323.8462
2023-04-17T08:52:15.746Z,5329.5386
2023-04-17T08:53:18.341Z,5303.9229
2023-04-17T08:54:20.897Z,5215.6924
2023-04-17T08:55:23.522Z,5241.1538
2023-04-17T08:56:26.076Z,5242.5386
2023-04-17T08:57:28.675Z,5102.5386
2023-04-17T08:58:31.236Z,5148.5386
2023-04-17T08:59:33.867Z,5305.1538
2023-04-17T09:00:36.435Z,5203.3848
2023-04-17T09:01:39.089Z,5096.4614
2023-04-17T09:02:41.716Z,5075.5386
2023-04-17T09:03:44.338Z,5167.1538
2023-04-17T09:04:46.859Z,5162.3076
2023-04-17T09:05:49.359Z,5298.3076
2023-04-17T09:06:52.025Z,5247.2310
2023-04-17T09:07:54.528Z,5237.6152
2023-04-17T09:08:57.086Z,5188.4614
2023-04-17T09:09:59.708Z,5150.6152
2023-04-17T09:11:02.276Z,5194.7690
2023-04-17T09:12:04.890Z,5108.8462
2023-04-17T09:13:07.474Z,5136.3848
2023-04-17T09:14:10.037Z,5105.1538
2023-04-17T09:15:12.603Z,5158.8462
2023-04-17T09:16:15.281Z,5098.6924
2023-04-17T09:17:17.770Z,5103.9229
2023-04-17T09:18:20.451Z,5169.7690
2023-04-17T09:19:23.133Z,5108.8462
2023-04-17T09:20:25.772Z,5116.8462
2023-04-17T09:21:28.174Z,5071.3848
2023-04-17T09:22:30.792Z,5026.2310
2023-04-17T09:23:33.352Z,5047.3848
2023-04-17T09:24:36.316Z,4975.3076
2023-04-17T09:25:38.514Z,5046.3076
2023-04-17T09:26:41.135Z,4995.2310
2023-04-17T09:27:43.682Z,5050.3076
2023-04-17T09:28:46.303Z,4979.4614
2023-04-17T09:29:48.854Z,4996.1538
2023-04-17T09:30:51.466Z,5004.9229
2023-04-17T09:31:54.095Z,4914.2310
2023-04-17T09:32:56.785Z,4987.6152
2023-04-17T09:33:59.216Z,4951.6152
2023-04-17T09:35:01.825Z,4933.0000
2023-04-17T09:36:04.401Z,4876.7690
2023-04-17T09:37:07.969Z,4877.9229
2023-04-17T09:38:09.559Z,4918.3076
2023-04-17T09:39:12.242Z,4947.0000
2023-04-17T09:40:14.723Z,4935.6924
2023-04-17T09:41:17.407Z,5014.6152
2023-04-17T09:42:19.914Z,4951.5386
2023-04-17T09:43:22.442Z,4973.8462
2023-04-17T09:44:25.057Z,4957.0000
2023-04-17T09:45:48.604Z,4874.7690
2023-04-17T09:46:30.250Z,4891.8750
2023-04-17T09:47:32.838Z,4886.7690
2023-04-17T09:48:35.368Z,4974.9229
2023-04-17T09:49:38.198Z,4998.9229
2023-04-17T09:50:40.527Z,4915.6152
2023-04-17T09:51:43.155Z,4892.8462
2023-04-17T09:52:45.713Z,4913.6924
2023-04-17T09:53:48.363Z,4944.2310
2023-04-17T09:54:50.849Z,5019.7690
2023-04-17T09:55:53.467Z,4966.2310
2023-04-17T09:56:56.213Z,4930.0771
2023-04-17T09:57:58.625Z,4947.8462
2023-04-17T09:59:01.193Z,4931.6924
2023-04-17T10:00:03.786Z,4960.3076
2023-04-17T10:01:06.401Z,4966.9229
2023-04-17T10:02:09.092Z,4910.4614
2023-04-17T10:03:11.760Z,4920.9229
2023-04-17T10:04:14.440Z,4882.3076
2023-04-17T10:05:16.672Z,4934.8462
2023-04-17T10:06:19.306Z,4983.7690
2023-04-17T10:07:21.842Z,5053.2310
2023-04-17T10:08:24.451Z,5164.4614
2023-04-17T10:09:27.043Z,5269.5386
2023-04-17T10:10:29.670Z,5353.9229
2023-04-17T10:11:32.196Z,5503.0000
2023-04-17T10:12:35.113Z,5578.0771
2023-04-17T10:13:37.337Z,5617.4614
2023-04-17T10:14:39.953Z,5523.6924
2023-04-17T10:15:42.500Z,4751.3848
2023-04-17T10:16:45.327Z,2372.3076
2023-04-17T10:17:47.677Z,1497.2307
2023-04-17T10:18:50.293Z,1181.3846
2023-04-17T10:19:52.852Z,1756.8462
2023-04-17T10:20:55.534Z,3353.7693
2023-04-17T10:21:58.006Z,3463.0769
2023-04-17T10:23:00.617Z,3507.1538
2023-04-17T10:24:03.174Z,3651.3845
2023-04-17T10:25:05.768Z,3712.5386
2023-04-17T10:26:08.335Z,3728.6155
2023-04-17T10:27:10.958Z,3613.2307
2023-04-17T10:28:13.507Z,3675.0000
2023-04-17T10:29:16.109Z,3908.7693
2023-04-17T10:31:21.311Z,4014.2307
2023-04-17T10:32:23.818Z,3947.0769
2023-04-17T10:33:26.470Z,3828.3076
2023-04-17T10:34:29.045Z,3873.0000
2023-04-17T10:35:31.603Z,3805.1538
2023-04-17T10:36:34.156Z,3826.6155
2023-04-17T10:37:36.764Z,3857.3845
2023-04-17T10:38:39.319Z,3818.7693
2023-04-17T10:39:41.928Z,3782.6924
2023-04-17T10:40:44.548Z,3769.3845
2023-04-17T10:41:47.106Z,3755.0769
2023-04-17T10:42:49.661Z,3774.1538
2023-04-17T10:43:52.290Z,3806.4614
2023-04-17T10:44:54.845Z,3801.8462
2023-04-17T10:45:57.531Z,3769.0000
2023-04-17T10:46:59.993Z,3734.8462
2023-04-17T10:48:02.697Z,3792.7693
2023-04-17T10:49:05.185Z,3833.6924
2023-04-17T10:50:07.790Z,3849.7693
2023-04-17T10:51:10.355Z,3877.3076
2023-04-17T10:52:12.944Z,3853.5386
2023-04-17T10:53:15.504Z,3815.1538
2023-04-17T10:54:18.114Z,3831.3076
2023-04-17T10:55:20.686Z,3810.6155
2023-04-17T10:56:23.285Z,3794.7693
2023-04-17T10:57:26.176Z,3844.9231
2023-04-17T10:58:31.616Z,3808.6924
2023-04-17T10:59:31.010Z,3797.3076
2023-04-17T11:00:33.628Z,3800.9231
2023-04-17T11:01:36.197Z,3742.6155
2023-04-17T11:02:38.841Z,2950.4614
2023-04-17T11:03:41.375Z,1689.9231
2023-04-17T11:04:43.979Z,1196.3077
2023-04-17T11:05:46.524Z,2098.4614
2023-04-17T11:06:49.136Z,2546.6155
2023-04-17T11:07:51.676Z,2844.1538
2023-04-17T11:08:55.615Z,2862.0000
2023-04-17T11:09:56.824Z,2768.9231
2023-04-17T11:10:59.461Z,2757.9231
2023-04-17T11:12:02.383Z,2796.3845
2023-04-17T11:13:04.606Z,2805.0769
2023-04-17T11:14:07.152Z,2769.4614
2023-04-17T11:15:09.818Z,2715.3076
2023-04-17T11:16:12.318Z,2596.3845
2023-04-17T11:17:14.954Z,2483.9231
